sensor_id;sensor_type;location;lat;lon;timestamp;P1;durP1;ratioP1;P2;durP2;ratioP2
15082;SDS011;7640;53.116;6.878;2024-01-06T00:01:30;33.57;;;17.03;;
15082;SDS011;7640;53.116;6.878;2024-01-06T00:03:59;34.87;;;18.50;;
15082;SDS011;7640;53.116;6.878;2024-01-06T00:06:28;29.97;;;16.33;;
15082;SDS011;7640;53.116;6.878;2024-01-06T00:08:57;31.67;;;16.13;;
15082;SDS011;7640;53.116;6.878;2024-01-06T00:11:26;32.60;;;17.13;;
15082;SDS011;7640;53.116;6.878;2024-01-06T00:13:54;34.47;;;17.73;;
15082;SDS011;7640;53.116;6.878;2024-01-06T00:16:25;31.40;;;16.23;;
15082;SDS011;7640;53.116;6.878;2024-01-06T00:18:55;33.00;;;16.97;;
15082;SDS011;7640;53.116;6.878;2024-01-06T00:21:24;30.20;;;16.27;;
15082;SDS011;7640;53.116;6.878;2024-01-06T00:23:53;31.77;;;16.30;;
15082;SDS011;7640;53.116;6.878;2024-01-06T00:26:23;29.07;;;15.63;;
15082;SDS011;7640;53.116;6.878;2024-01-06T00:28:52;30.87;;;16.73;;
15082;SDS011;7640;53.116;6.878;2024-01-06T00:31:20;32.70;;;16.80;;
15082;SDS011;7640;53.116;6.878;2024-01-06T00:33:51;33.47;;;17.30;;
15082;SDS011;7640;53.116;6.878;2024-01-06T00:36:20;35.37;;;18.07;;
15082;SDS011;7640;53.116;6.878;2024-01-06T00:38:49;33.43;;;17.17;;
15082;SDS011;7640;53.116;6.878;2024-01-06T00:41:18;33.03;;;15.73;;
15082;SDS011;7640;53.116;6.878;2024-01-06T00:43:46;32.10;;;16.93;;
15082;SDS011;7640;53.116;6.878;2024-01-06T00:46:15;33.90;;;18.17;;
15082;SDS011;7640;53.116;6.878;2024-01-06T00:48:44;32.77;;;16.47;;
15082;SDS011;7640;53.116;6.878;2024-01-06T00:51:14;32.93;;;17.20;;
15082;SDS011;7640;53.116;6.878;2024-01-06T00:53:43;30.97;;;16.87;;
15082;SDS011;7640;53.116;6.878;2024-01-06T00:56:12;31.93;;;16.83;;
15082;SDS011;7640;53.116;6.878;2024-01-06T00:58:40;31.50;;;16.33;;
15082;SDS011;7640;53.116;6.878;2024-01-06T01:01:09;29.77;;;15.67;;
15082;SDS011;7640;53.116;6.878;2024-01-06T01:03:37;30.00;;;16.27;;
15082;SDS011;7640;53.116;6.878;2024-01-06T01:06:06;29.87;;;15.33;;
15082;SDS011;7640;53.116;6.878;2024-01-06T01:08:36;32.20;;;16.77;;
15082;SDS011;7640;53.116;6.878;2024-01-06T01:11:05;30.83;;;16.67;;
15082;SDS011;7640;53.116;6.878;2024-01-06T01:13:33;32.47;;;17.20;;
15082;SDS011;7640;53.116;6.878;2024-01-06T01:16:02;32.07;;;16.63;;
15082;SDS011;7640;53.116;6.878;2024-01-06T01:18:30;32.53;;;17.17;;
15082;SDS011;7640;53.116;6.878;2024-01-06T01:20:59;32.27;;;17.07;;
15082;SDS011;7640;53.116;6.878;2024-01-06T01:23:28;32.77;;;16.03;;
15082;SDS011;7640;53.116;6.878;2024-01-06T01:25:58;33.03;;;17.13;;
15082;SDS011;7640;53.116;6.878;2024-01-06T01:28:27;29.63;;;15.97;;
15082;SDS011;7640;53.116;6.878;2024-01-06T01:30:56;28.93;;;15.77;;
15082;SDS011;7640;53.116;6.878;2024-01-06T01:33:26;31.93;;;17.30;;
15082;SDS011;7640;53.116;6.878;2024-01-06T01:35:55;31.07;;;17.70;;
15082;SDS011;7640;53.116;6.878;2024-01-06T01:38:28;32.53;;;17.23;;
15082;SDS011;7640;53.116;6.878;2024-01-06T01:40:59;32.73;;;17.00;;
15082;SDS011;7640;53.116;6.878;2024-01-06T01:43:27;32.57;;;16.67;;
15082;SDS011;7640;53.116;6.878;2024-01-06T01:45:56;36.07;;;17.83;;
15082;SDS011;7640;53.116;6.878;2024-01-06T01:48:26;35.47;;;18.13;;
15082;SDS011;7640;53.116;6.878;2024-01-06T01:50:55;34.00;;;17.37;;
15082;SDS011;7640;53.116;6.878;2024-01-06T01:53:24;33.20;;;17.37;;
15082;SDS011;7640;53.116;6.878;2024-01-06T01:55:54;34.60;;;18.03;;
15082;SDS011;7640;53.116;6.878;2024-01-06T01:58:25;31.40;;;17.50;;
15082;SDS011;7640;53.116;6.878;2024-01-06T02:00:54;32.47;;;17.10;;
15082;SDS011;7640;53.116;6.878;2024-01-06T02:03:24;32.90;;;16.40;;
15082;SDS011;7640;53.116;6.878;2024-01-06T02:05:54;32.00;;;17.47;;
15082;SDS011;7640;53.116;6.878;2024-01-06T02:08:23;32.53;;;17.50;;
15082;SDS011;7640;53.116;6.878;2024-01-06T02:10:53;32.43;;;17.13;;
15082;SDS011;7640;53.116;6.878;2024-01-06T02:13:24;31.87;;;16.73;;
15082;SDS011;7640;53.116;6.878;2024-01-06T02:16:00;34.07;;;17.23;;
15082;SDS011;7640;53.116;6.878;2024-01-06T02:18:31;33.50;;;17.23;;
15082;SDS011;7640;53.116;6.878;2024-01-06T02:21:01;36.43;;;20.10;;
15082;SDS011;7640;53.116;6.878;2024-01-06T02:23:33;32.30;;;18.20;;
15082;SDS011;7640;53.116;6.878;2024-01-06T02:26:04;34.93;;;17.87;;
15082;SDS011;7640;53.116;6.878;2024-01-06T02:28:34;31.30;;;17.40;;
15082;SDS011;7640;53.116;6.878;2024-01-06T02:31:02;33.67;;;17.47;;
15082;SDS011;7640;53.116;6.878;2024-01-06T02:33:31;32.53;;;17.10;;
15082;SDS011;7640;53.116;6.878;2024-01-06T02:36:00;34.23;;;18.87;;
15082;SDS011;7640;53.116;6.878;2024-01-06T02:38:29;34.47;;;18.43;;
15082;SDS011;7640;53.116;6.878;2024-01-06T02:40:58;31.27;;;16.57;;
15082;SDS011;7640;53.116;6.878;2024-01-06T02:43:27;33.83;;;17.83;;
15082;SDS011;7640;53.116;6.878;2024-01-06T02:45:56;36.97;;;18.67;;
15082;SDS011;7640;53.116;6.878;2024-01-06T02:48:24;33.03;;;17.77;;
15082;SDS011;7640;53.116;6.878;2024-01-06T02:50:56;35.27;;;17.37;;
15082;SDS011;7640;53.116;6.878;2024-01-06T02:53:25;33.33;;;18.43;;
15082;SDS011;7640;53.116;6.878;2024-01-06T02:55:53;33.87;;;17.47;;
15082;SDS011;7640;53.116;6.878;2024-01-06T02:58:23;31.30;;;17.43;;
15082;SDS011;7640;53.116;6.878;2024-01-06T03:00:52;33.90;;;17.97;;
15082;SDS011;7640;53.116;6.878;2024-01-06T03:03:20;32.13;;;17.27;;
15082;SDS011;7640;53.116;6.878;2024-01-06T03:05:50;33.90;;;18.27;;
15082;SDS011;7640;53.116;6.878;2024-01-06T03:08:18;33.80;;;17.40;;
15082;SDS011;7640;53.116;6.878;2024-01-06T03:10:47;31.63;;;17.60;;
15082;SDS011;7640;53.116;6.878;2024-01-06T03:13:16;30.40;;;16.73;;
15082;SDS011;7640;53.116;6.878;2024-01-06T03:15:47;28.47;;;16.70;;
15082;SDS011;7640;53.116;6.878;2024-01-06T03:18:16;34.57;;;18.23;;
15082;SDS011;7640;53.116;6.878;2024-01-06T03:20:46;32.40;;;18.63;;
15082;SDS011;7640;53.116;6.878;2024-01-06T03:23:15;30.53;;;16.37;;
15082;SDS011;7640;53.116;6.878;2024-01-06T03:25:43;34.73;;;17.67;;
15082;SDS011;7640;53.116;6.878;2024-01-06T03:28:12;30.33;;;17.20;;
15082;SDS011;7640;53.116;6.878;2024-01-06T03:30:40;31.23;;;17.13;;
15082;SDS011;7640;53.116;6.878;2024-01-06T03:33:10;29.77;;;16.10;;
15082;SDS011;7640;53.116;6.878;2024-01-06T03:35:39;30.63;;;16.50;;
15082;SDS011;7640;53.116;6.878;2024-01-06T03:38:08;28.00;;;16.27;;
15082;SDS011;7640;53.116;6.878;2024-01-06T03:40:37;30.83;;;16.30;;
15082;SDS011;7640;53.116;6.878;2024-01-06T03:43:06;31.90;;;17.83;;
15082;SDS011;7640;53.116;6.878;2024-01-06T03:45:34;30.77;;;16.87;;
15082;SDS011;7640;53.116;6.878;2024-01-06T03:48:03;30.53;;;16.40;;
15082;SDS011;7640;53.116;6.878;2024-01-06T03:50:33;30.33;;;15.87;;
15082;SDS011;7640;53.116;6.878;2024-01-06T03:53:02;30.20;;;16.20;;
15082;SDS011;7640;53.116;6.878;2024-01-06T03:55:31;33.07;;;17.53;;
15082;SDS011;7640;53.116;6.878;2024-01-06T03:58:00;29.50;;;16.87;;
15082;SDS011;7640;53.116;6.878;2024-01-06T04:00:29;30.50;;;16.17;;
15082;SDS011;7640;53.116;6.878;2024-01-06T04:02:57;29.07;;;15.33;;
15082;SDS011;7640;53.116;6.878;2024-01-06T04:05:26;27.47;;;15.13;;
15082;SDS011;7640;53.116;6.878;2024-01-06T04:07:56;28.13;;;15.33;;
15082;SDS011;7640;53.116;6.878;2024-01-06T04:10:25;29.90;;;15.57;;
15082;SDS011;7640;53.116;6.878;2024-01-06T04:12:53;26.13;;;15.37;;
15082;SDS011;7640;53.116;6.878;2024-01-06T04:15:22;31.57;;;15.43;;
15082;SDS011;7640;53.116;6.878;2024-01-06T04:17:51;25.47;;;14.80;;
15082;SDS011;7640;53.116;6.878;2024-01-06T04:20:20;25.30;;;14.30;;
15082;SDS011;7640;53.116;6.878;2024-01-06T04:22:49;29.17;;;15.53;;
15082;SDS011;7640;53.116;6.878;2024-01-06T04:25:19;25.97;;;14.93;;
15082;SDS011;7640;53.116;6.878;2024-01-06T04:27:48;26.47;;;15.00;;
15082;SDS011;7640;53.116;6.878;2024-01-06T04:30:17;24.67;;;14.20;;
15082;SDS011;7640;53.116;6.878;2024-01-06T04:32:47;26.53;;;14.93;;
15082;SDS011;7640;53.116;6.878;2024-01-06T04:35:16;25.80;;;14.93;;
15082;SDS011;7640;53.116;6.878;2024-01-06T04:37:45;25.67;;;14.20;;
15082;SDS011;7640;53.116;6.878;2024-01-06T04:40:14;28.77;;;15.33;;
15082;SDS011;7640;53.116;6.878;2024-01-06T04:42:44;22.47;;;14.23;;
15082;SDS011;7640;53.116;6.878;2024-01-06T04:45:13;26.70;;;15.30;;
15082;SDS011;7640;53.116;6.878;2024-01-06T04:47:42;27.63;;;15.70;;
15082;SDS011;7640;53.116;6.878;2024-01-06T04:50:10;27.53;;;14.17;;
15082;SDS011;7640;53.116;6.878;2024-01-06T04:52:39;25.93;;;15.07;;
15082;SDS011;7640;53.116;6.878;2024-01-06T04:55:07;25.80;;;13.93;;
15082;SDS011;7640;53.116;6.878;2024-01-06T04:57:36;26.73;;;15.57;;
15082;SDS011;7640;53.116;6.878;2024-01-06T05:00:07;27.23;;;15.50;;
15082;SDS011;7640;53.116;6.878;2024-01-06T05:02:37;26.90;;;15.23;;
15082;SDS011;7640;53.116;6.878;2024-01-06T05:05:06;25.30;;;14.70;;
15082;SDS011;7640;53.116;6.878;2024-01-06T05:07:34;27.10;;;14.67;;
15082;SDS011;7640;53.116;6.878;2024-01-06T05:10:03;25.67;;;15.43;;
15082;SDS011;7640;53.116;6.878;2024-01-06T05:12:33;27.47;;;15.00;;
15082;SDS011;7640;53.116;6.878;2024-01-06T05:15:02;27.83;;;15.37;;
15082;SDS011;7640;53.116;6.878;2024-01-06T05:17:33;29.90;;;15.97;;
15082;SDS011;7640;53.116;6.878;2024-01-06T05:20:02;28.27;;;15.23;;
15082;SDS011;7640;53.116;6.878;2024-01-06T05:22:31;27.67;;;14.13;;
15082;SDS011;7640;53.116;6.878;2024-01-06T05:25:00;25.67;;;14.80;;
15082;SDS011;7640;53.116;6.878;2024-01-06T05:27:29;25.50;;;14.67;;
15082;SDS011;7640;53.116;6.878;2024-01-06T05:29:57;26.37;;;14.87;;
15082;SDS011;7640;53.116;6.878;2024-01-06T05:32:26;26.80;;;14.60;;
15082;SDS011;7640;53.116;6.878;2024-01-06T05:34:56;24.53;;;13.70;;
15082;SDS011;7640;53.116;6.878;2024-01-06T05:37:25;23.90;;;14.30;;
15082;SDS011;7640;53.116;6.878;2024-01-06T05:39:53;25.37;;;14.13;;
15082;SDS011;7640;53.116;6.878;2024-01-06T05:42:22;23.83;;;13.70;;
15082;SDS011;7640;53.116;6.878;2024-01-06T05:44:50;24.70;;;14.17;;
15082;SDS011;7640;53.116;6.878;2024-01-06T05:47:19;26.67;;;14.37;;
15082;SDS011;7640;53.116;6.878;2024-01-06T05:49:48;26.30;;;14.37;;
15082;SDS011;7640;53.116;6.878;2024-01-06T05:52:18;22.70;;;14.10;;
15082;SDS011;7640;53.116;6.878;2024-01-06T05:54:46;23.87;;;13.97;;
15082;SDS011;7640;53.116;6.878;2024-01-06T05:57:15;22.63;;;14.10;;
15082;SDS011;7640;53.116;6.878;2024-01-06T05:59:44;23.07;;;13.97;;
15082;SDS011;7640;53.116;6.878;2024-01-06T06:02:13;23.43;;;14.23;;
15082;SDS011;7640;53.116;6.878;2024-01-06T06:04:42;25.00;;;13.97;;
15082;SDS011;7640;53.116;6.878;2024-01-06T06:07:11;25.97;;;14.53;;
15082;SDS011;7640;53.116;6.878;2024-01-06T06:09:41;23.33;;;14.17;;
15082;SDS011;7640;53.116;6.878;2024-01-06T06:12:10;25.00;;;14.17;;
15082;SDS011;7640;53.116;6.878;2024-01-06T06:14:39;27.17;;;15.37;;
15082;SDS011;7640;53.116;6.878;2024-01-06T06:17:08;25.50;;;14.63;;
15082;SDS011;7640;53.116;6.878;2024-01-06T06:19:37;24.80;;;14.67;;
15082;SDS011;7640;53.116;6.878;2024-01-06T06:22:08;26.43;;;15.03;;
15082;SDS011;7640;53.116;6.878;2024-01-06T06:24:37;23.70;;;15.00;;
15082;SDS011;7640;53.116;6.878;2024-01-06T06:27:08;22.40;;;13.67;;
15082;SDS011;7640;53.116;6.878;2024-01-06T06:29:37;23.50;;;14.33;;
15082;SDS011;7640;53.116;6.878;2024-01-06T06:32:06;25.13;;;14.77;;
15082;SDS011;7640;53.116;6.878;2024-01-06T06:34:35;24.00;;;14.03;;
15082;SDS011;7640;53.116;6.878;2024-01-06T06:37:08;23.13;;;13.77;;
15082;SDS011;7640;53.116;6.878;2024-01-06T06:39:39;22.97;;;13.90;;
15082;SDS011;7640;53.116;6.878;2024-01-06T06:42:10;21.67;;;13.43;;
15082;SDS011;7640;53.116;6.878;2024-01-06T06:44:39;22.90;;;14.07;;
15082;SDS011;7640;53.116;6.878;2024-01-06T06:47:08;23.10;;;13.03;;
15082;SDS011;7640;53.116;6.878;2024-01-06T06:49:37;21.20;;;13.30;;
15082;SDS011;7640;53.116;6.878;2024-01-06T06:52:06;20.97;;;13.30;;
15082;SDS011;7640;53.116;6.878;2024-01-06T06:54:35;19.63;;;12.57;;
15082;SDS011;7640;53.116;6.878;2024-01-06T06:57:04;20.77;;;13.10;;
15082;SDS011;7640;53.116;6.878;2024-01-06T06:59:35;19.50;;;12.90;;
15082;SDS011;7640;53.116;6.878;2024-01-06T07:02:04;20.30;;;12.13;;
15082;SDS011;7640;53.116;6.878;2024-01-06T07:04:33;19.83;;;12.00;;
15082;SDS011;7640;53.116;6.878;2024-01-06T07:07:02;19.70;;;12.30;;
15082;SDS011;7640;53.116;6.878;2024-01-06T07:09:31;18.73;;;12.07;;
15082;SDS011;7640;53.116;6.878;2024-01-06T07:11:59;19.13;;;12.03;;
15082;SDS011;7640;53.116;6.878;2024-01-06T07:14:28;18.13;;;11.57;;
15082;SDS011;7640;53.116;6.878;2024-01-06T07:16:58;18.30;;;12.03;;
15082;SDS011;7640;53.116;6.878;2024-01-06T07:19:29;19.10;;;12.23;;
15082;SDS011;7640;53.116;6.878;2024-01-06T07:22:00;19.83;;;13.00;;
15082;SDS011;7640;53.116;6.878;2024-01-06T07:24:32;19.13;;;12.57;;
15082;SDS011;7640;53.116;6.878;2024-01-06T07:27:03;19.73;;;12.30;;
15082;SDS011;7640;53.116;6.878;2024-01-06T07:29:31;21.30;;;12.63;;
15082;SDS011;7640;53.116;6.878;2024-01-06T07:32:02;19.63;;;12.10;;
15082;SDS011;7640;53.116;6.878;2024-01-06T07:34:32;19.47;;;12.83;;
15082;SDS011;7640;53.116;6.878;2024-01-06T07:37:02;19.50;;;12.17;;
15082;SDS011;7640;53.116;6.878;2024-01-06T07:39:33;17.53;;;11.67;;
15082;SDS011;7640;53.116;6.878;2024-01-06T07:42:02;20.13;;;12.70;;
15082;SDS011;7640;53.116;6.878;2024-01-06T07:44:32;18.53;;;12.30;;
15082;SDS011;7640;53.116;6.878;2024-01-06T07:47:03;19.77;;;12.53;;
15082;SDS011;7640;53.116;6.878;2024-01-06T07:49:32;18.57;;;12.37;;
15082;SDS011;7640;53.116;6.878;2024-01-06T07:52:01;19.87;;;12.63;;
15082;SDS011;7640;53.116;6.878;2024-01-06T07:54:31;18.87;;;12.70;;
15082;SDS011;7640;53.116;6.878;2024-01-06T07:56:59;17.33;;;11.87;;
15082;SDS011;7640;53.116;6.878;2024-01-06T07:59:28;19.93;;;13.03;;
15082;SDS011;7640;53.116;6.878;2024-01-06T08:01:57;18.17;;;12.43;;
15082;SDS011;7640;53.116;6.878;2024-01-06T08:04:27;20.17;;;13.73;;
15082;SDS011;7640;53.116;6.878;2024-01-06T08:06:57;18.77;;;12.40;;
15082;SDS011;7640;53.116;6.878;2024-01-06T08:09:26;19.77;;;12.67;;
15082;SDS011;7640;53.116;6.878;2024-01-06T08:11:55;21.10;;;13.27;;
15082;SDS011;7640;53.116;6.878;2024-01-06T08:14:24;20.00;;;13.50;;
15082;SDS011;7640;53.116;6.878;2024-01-06T08:16:54;20.13;;;13.43;;
15082;SDS011;7640;53.116;6.878;2024-01-06T08:19:23;18.90;;;12.53;;
15082;SDS011;7640;53.116;6.878;2024-01-06T08:21:54;19.83;;;13.30;;
15082;SDS011;7640;53.116;6.878;2024-01-06T08:24:23;22.93;;;14.07;;
15082;SDS011;7640;53.116;6.878;2024-01-06T08:26:53;21.73;;;13.20;;
15082;SDS011;7640;53.116;6.878;2024-01-06T08:29:22;21.20;;;13.53;;
15082;SDS011;7640;53.116;6.878;2024-01-06T08:31:50;21.07;;;13.60;;
15082;SDS011;7640;53.116;6.878;2024-01-06T08:34:21;23.10;;;13.43;;
15082;SDS011;7640;53.116;6.878;2024-01-06T08:36:58;21.70;;;13.43;;
15082;SDS011;7640;53.116;6.878;2024-01-06T08:39:27;22.80;;;13.60;;
15082;SDS011;7640;53.116;6.878;2024-01-06T08:41:56;20.07;;;13.03;;
15082;SDS011;7640;53.116;6.878;2024-01-06T08:44:27;22.03;;;14.70;;
15082;SDS011;7640;53.116;6.878;2024-01-06T08:46:56;22.23;;;14.23;;
15082;SDS011;7640;53.116;6.878;2024-01-06T08:49:25;22.33;;;14.60;;
15082;SDS011;7640;53.116;6.878;2024-01-06T08:51:53;22.07;;;14.47;;
15082;SDS011;7640;53.116;6.878;2024-01-06T08:54:24;23.27;;;14.53;;
15082;SDS011;7640;53.116;6.878;2024-01-06T08:56:53;23.60;;;14.50;;
15082;SDS011;7640;53.116;6.878;2024-01-06T08:59:23;21.90;;;13.77;;
15082;SDS011;7640;53.116;6.878;2024-01-06T09:01:52;23.37;;;14.87;;
15082;SDS011;7640;53.116;6.878;2024-01-06T09:04:20;23.93;;;15.30;;
15082;SDS011;7640;53.116;6.878;2024-01-06T09:06:49;21.40;;;13.83;;
15082;SDS011;7640;53.116;6.878;2024-01-06T09:09:18;25.27;;;14.97;;
15082;SDS011;7640;53.116;6.878;2024-01-06T09:11:48;24.17;;;15.50;;
15082;SDS011;7640;53.116;6.878;2024-01-06T09:14:18;24.63;;;15.20;;
15082;SDS011;7640;53.116;6.878;2024-01-06T09:16:46;24.10;;;15.80;;
15082;SDS011;7640;53.116;6.878;2024-01-06T09:19:15;24.07;;;14.70;;
15082;SDS011;7640;53.116;6.878;2024-01-06T09:21:44;24.77;;;14.93;;
15082;SDS011;7640;53.116;6.878;2024-01-06T09:24:13;25.70;;;15.80;;
15082;SDS011;7640;53.116;6.878;2024-01-06T09:26:42;25.03;;;15.43;;
15082;SDS011;7640;53.116;6.878;2024-01-06T09:29:13;22.90;;;14.80;;
15082;SDS011;7640;53.116;6.878;2024-01-06T09:31:43;24.07;;;15.17;;
15082;SDS011;7640;53.116;6.878;2024-01-06T09:34:12;25.70;;;15.57;;
15082;SDS011;7640;53.116;6.878;2024-01-06T09:36:40;25.27;;;15.60;;
15082;SDS011;7640;53.116;6.878;2024-01-06T09:39:10;24.30;;;15.03;;
15082;SDS011;7640;53.116;6.878;2024-01-06T09:41:39;25.93;;;15.77;;
15082;SDS011;7640;53.116;6.878;2024-01-06T09:44:08;25.77;;;15.87;;
15082;SDS011;7640;53.116;6.878;2024-01-06T09:46:41;26.53;;;15.17;;
15082;SDS011;7640;53.116;6.878;2024-01-06T09:49:10;24.40;;;15.20;;
15082;SDS011;7640;53.116;6.878;2024-01-06T09:51:40;25.13;;;15.33;;
15082;SDS011;7640;53.116;6.878;2024-01-06T09:54:09;24.43;;;14.33;;
15082;SDS011;7640;53.116;6.878;2024-01-06T09:56:40;24.63;;;15.00;;
15082;SDS011;7640;53.116;6.878;2024-01-06T09:59:13;23.80;;;14.80;;
15082;SDS011;7640;53.116;6.878;2024-01-06T10:01:44;26.63;;;14.93;;
15082;SDS011;7640;53.116;6.878;2024-01-06T10:04:13;25.43;;;14.83;;
15082;SDS011;7640;53.116;6.878;2024-01-06T10:06:46;23.63;;;15.47;;
15082;SDS011;7640;53.116;6.878;2024-01-06T10:09:16;25.47;;;15.77;;
15082;SDS011;7640;53.116;6.878;2024-01-06T10:11:50;26.50;;;16.10;;
15082;SDS011;7640;53.116;6.878;2024-01-06T10:14:23;23.70;;;14.80;;
15082;SDS011;7640;53.116;6.878;2024-01-06T10:16:54;25.37;;;15.13;;
15082;SDS011;7640;53.116;6.878;2024-01-06T10:19:23;24.27;;;15.43;;
15082;SDS011;7640;53.116;6.878;2024-01-06T10:21:52;25.50;;;15.70;;
15082;SDS011;7640;53.116;6.878;2024-01-06T10:24:21;25.03;;;15.57;;
15082;SDS011;7640;53.116;6.878;2024-01-06T10:26:50;26.97;;;14.73;;
15082;SDS011;7640;53.116;6.878;2024-01-06T10:29:19;25.40;;;15.20;;
15082;SDS011;7640;53.116;6.878;2024-01-06T10:31:47;26.90;;;16.27;;
15082;SDS011;7640;53.116;6.878;2024-01-06T10:34:22;23.60;;;14.77;;
15082;SDS011;7640;53.116;6.878;2024-01-06T10:36:52;25.60;;;15.07;;
15082;SDS011;7640;53.116;6.878;2024-01-06T10:39:22;24.93;;;15.47;;
15082;SDS011;7640;53.116;6.878;2024-01-06T10:41:53;22.47;;;14.60;;
15082;SDS011;7640;53.116;6.878;2024-01-06T10:44:24;23.30;;;14.40;;
15082;SDS011;7640;53.116;6.878;2024-01-06T10:46:54;23.67;;;15.10;;
15082;SDS011;7640;53.116;6.878;2024-01-06T10:49:28;23.20;;;14.87;;
15082;SDS011;7640;53.116;6.878;2024-01-06T10:51:59;22.87;;;13.93;;
15082;SDS011;7640;53.116;6.878;2024-01-06T10:54:28;23.03;;;14.80;;
15082;SDS011;7640;53.116;6.878;2024-01-06T10:56:59;23.67;;;14.83;;
15082;SDS011;7640;53.116;6.878;2024-01-06T10:59:30;22.93;;;14.93;;
15082;SDS011;7640;53.116;6.878;2024-01-06T11:02:02;24.33;;;15.03;;
15082;SDS011;7640;53.116;6.878;2024-01-06T11:04:33;24.80;;;15.80;;
15082;SDS011;7640;53.116;6.878;2024-01-06T11:07:03;21.07;;;13.83;;
15082;SDS011;7640;53.116;6.878;2024-01-06T11:09:33;21.77;;;15.13;;
15082;SDS011;7640;53.116;6.878;2024-01-06T11:12:05;22.37;;;14.53;;
15082;SDS011;7640;53.116;6.878;2024-01-06T11:14:36;23.93;;;15.33;;
15082;SDS011;7640;53.116;6.878;2024-01-06T11:17:06;22.77;;;14.53;;
15082;SDS011;7640;53.116;6.878;2024-01-06T11:19:48;23.57;;;15.50;;
15082;SDS011;7640;53.116;6.878;2024-01-06T11:22:25;20.93;;;14.70;;
15082;SDS011;7640;53.116;6.878;2024-01-06T11:25:03;23.13;;;15.13;;
15082;SDS011;7640;53.116;6.878;2024-01-06T11:27:34;25.40;;;15.87;;
15082;SDS011;7640;53.116;6.878;2024-01-06T11:30:05;24.90;;;15.73;;
15082;SDS011;7640;53.116;6.878;2024-01-06T11:32:35;24.97;;;15.57;;
15082;SDS011;7640;53.116;6.878;2024-01-06T11:35:08;23.97;;;15.30;;
15082;SDS011;7640;53.116;6.878;2024-01-06T11:37:50;26.27;;;15.43;;
15082;SDS011;7640;53.116;6.878;2024-01-06T11:40:30;27.70;;;16.87;;
15082;SDS011;7640;53.116;6.878;2024-01-06T11:43:02;22.70;;;15.03;;
15082;SDS011;7640;53.116;6.878;2024-01-06T11:45:33;26.10;;;15.50;;
15082;SDS011;7640;53.116;6.878;2024-01-06T11:48:04;22.87;;;14.03;;
15082;SDS011;7640;53.116;6.878;2024-01-06T11:50:36;22.20;;;14.83;;
15082;SDS011;7640;53.116;6.878;2024-01-06T11:53:06;25.80;;;16.33;;
15082;SDS011;7640;53.116;6.878;2024-01-06T11:55:38;24.53;;;16.13;;
15082;SDS011;7640;53.116;6.878;2024-01-06T11:58:06;23.43;;;15.40;;
15082;SDS011;7640;53.116;6.878;2024-01-06T12:00:35;23.37;;;14.37;;
15082;SDS011;7640;53.116;6.878;2024-01-06T12:03:07;23.83;;;15.13;;
15082;SDS011;7640;53.116;6.878;2024-01-06T12:05:37;24.00;;;15.90;;
15082;SDS011;7640;53.116;6.878;2024-01-06T12:08:06;22.27;;;14.60;;
15082;SDS011;7640;53.116;6.878;2024-01-06T12:10:35;21.97;;;14.03;;
15082;SDS011;7640;53.116;6.878;2024-01-06T12:13:04;21.77;;;14.50;;
15082;SDS011;7640;53.116;6.878;2024-01-06T12:15:36;22.43;;;14.87;;
15082;SDS011;7640;53.116;6.878;2024-01-06T12:18:07;20.90;;;14.83;;
15082;SDS011;7640;53.116;6.878;2024-01-06T12:20:37;22.27;;;13.97;;
15082;SDS011;7640;53.116;6.878;2024-01-06T12:23:06;21.73;;;14.17;;
15082;SDS011;7640;53.116;6.878;2024-01-06T12:25:35;20.60;;;13.63;;
15082;SDS011;7640;53.116;6.878;2024-01-06T12:28:06;22.07;;;13.43;;
15082;SDS011;7640;53.116;6.878;2024-01-06T12:30:35;22.50;;;14.40;;
15082;SDS011;7640;53.116;6.878;2024-01-06T12:33:06;19.77;;;13.43;;
15082;SDS011;7640;53.116;6.878;2024-01-06T12:35:35;22.30;;;14.70;;
15082;SDS011;7640;53.116;6.878;2024-01-06T12:38:05;20.60;;;13.73;;
15082;SDS011;7640;53.116;6.878;2024-01-06T12:40:35;21.40;;;13.93;;
15082;SDS011;7640;53.116;6.878;2024-01-06T12:43:04;22.07;;;14.50;;
15082;SDS011;7640;53.116;6.878;2024-01-06T12:45:33;21.33;;;13.87;;
15082;SDS011;7640;53.116;6.878;2024-01-06T12:48:02;20.87;;;14.23;;
15082;SDS011;7640;53.116;6.878;2024-01-06T12:50:32;22.13;;;14.30;;
15082;SDS011;7640;53.116;6.878;2024-01-06T12:53:02;21.03;;;14.60;;
15082;SDS011;7640;53.116;6.878;2024-01-06T12:55:33;19.77;;;13.17;;
15082;SDS011;7640;53.116;6.878;2024-01-06T12:58:02;20.30;;;14.10;;
15082;SDS011;7640;53.116;6.878;2024-01-06T13:00:31;21.63;;;13.83;;
15082;SDS011;7640;53.116;6.878;2024-01-06T13:03:02;21.63;;;14.50;;
15082;SDS011;7640;53.116;6.878;2024-01-06T13:05:32;20.53;;;13.53;;
15082;SDS011;7640;53.116;6.878;2024-01-06T13:08:01;22.23;;;14.90;;
15082;SDS011;7640;53.116;6.878;2024-01-06T13:10:32;20.20;;;13.87;;
15082;SDS011;7640;53.116;6.878;2024-01-06T13:13:02;23.50;;;14.20;;
15082;SDS011;7640;53.116;6.878;2024-01-06T13:15:32;19.70;;;13.80;;
15082;SDS011;7640;53.116;6.878;2024-01-06T13:18:01;20.27;;;13.83;;
15082;SDS011;7640;53.116;6.878;2024-01-06T13:20:31;21.33;;;13.50;;
15082;SDS011;7640;53.116;6.878;2024-01-06T13:23:00;22.97;;;14.47;;
15082;SDS011;7640;53.116;6.878;2024-01-06T13:25:34;20.87;;;14.33;;
15082;SDS011;7640;53.116;6.878;2024-01-06T13:28:04;21.33;;;14.23;;
15082;SDS011;7640;53.116;6.878;2024-01-06T13:30:34;22.70;;;14.40;;
15082;SDS011;7640;53.116;6.878;2024-01-06T13:33:03;21.37;;;14.13;;
15082;SDS011;7640;53.116;6.878;2024-01-06T13:35:32;19.30;;;13.53;;
15082;SDS011;7640;53.116;6.878;2024-01-06T13:38:03;21.30;;;13.90;;
15082;SDS011;7640;53.116;6.878;2024-01-06T13:40:32;20.60;;;13.93;;
15082;SDS011;7640;53.116;6.878;2024-01-06T13:43:02;21.00;;;14.13;;
15082;SDS011;7640;53.116;6.878;2024-01-06T13:45:35;22.53;;;14.07;;
15082;SDS011;7640;53.116;6.878;2024-01-06T13:48:04;24.30;;;14.67;;
15082;SDS011;7640;53.116;6.878;2024-01-06T13:50:36;20.17;;;13.23;;
15082;SDS011;7640;53.116;6.878;2024-01-06T13:53:05;22.50;;;13.80;;
15082;SDS011;7640;53.116;6.878;2024-01-06T13:55:36;21.60;;;13.80;;
15082;SDS011;7640;53.116;6.878;2024-01-06T13:58:05;23.40;;;14.57;;
15082;SDS011;7640;53.116;6.878;2024-01-06T14:00:35;23.73;;;14.43;;
15082;SDS011;7640;53.116;6.878;2024-01-06T14:03:05;21.97;;;14.40;;
15082;SDS011;7640;53.116;6.878;2024-01-06T14:05:34;23.13;;;14.60;;
15082;SDS011;7640;53.116;6.878;2024-01-06T14:08:04;23.80;;;15.47;;
15082;SDS011;7640;53.116;6.878;2024-01-06T14:10:33;24.77;;;14.60;;
15082;SDS011;7640;53.116;6.878;2024-01-06T14:13:05;22.53;;;14.07;;
15082;SDS011;7640;53.116;6.878;2024-01-06T14:15:34;24.17;;;14.77;;
15082;SDS011;7640;53.116;6.878;2024-01-06T14:18:03;25.97;;;15.53;;
15082;SDS011;7640;53.116;6.878;2024-01-06T14:20:32;25.53;;;15.23;;
15082;SDS011;7640;53.116;6.878;2024-01-06T14:23:05;24.77;;;14.83;;
15082;SDS011;7640;53.116;6.878;2024-01-06T14:25:33;24.40;;;14.63;;
15082;SDS011;7640;53.116;6.878;2024-01-06T14:28:04;23.00;;;14.20;;
15082;SDS011;7640;53.116;6.878;2024-01-06T14:30:33;22.03;;;13.93;;
15082;SDS011;7640;53.116;6.878;2024-01-06T14:33:02;24.50;;;14.77;;
15082;SDS011;7640;53.116;6.878;2024-01-06T14:35:31;24.33;;;15.60;;
15082;SDS011;7640;53.116;6.878;2024-01-06T14:38:00;22.50;;;15.27;;
15082;SDS011;7640;53.116;6.878;2024-01-06T14:40:29;26.47;;;15.10;;
15082;SDS011;7640;53.116;6.878;2024-01-06T14:42:59;26.70;;;15.47;;
15082;SDS011;7640;53.116;6.878;2024-01-06T14:45:29;27.67;;;15.77;;
15082;SDS011;7640;53.116;6.878;2024-01-06T14:47:58;23.80;;;14.23;;